createdAt,value
2023-05-09T00:01:14.135Z,4.50
2023-05-09T00:06:17.566Z,6.10
2023-05-09T00:11:22.219Z,5.60
2023-05-09T00:16:26.330Z,6.00
2023-05-09T00:21:29.268Z,6.20
2023-05-09T00:26:32.251Z,5.50
2023-05-09T00:31:35.064Z,6.10
2023-05-09T00:36:37.842Z,5.70
2023-05-09T00:41:40.691Z,4.90
2023-05-09T00:46:43.765Z,5.20
2023-05-09T00:51:48.173Z,6.30
2023-05-09T00:56:51.584Z,5.90
2023-05-09T01:01:54.386Z,5.70
2023-05-09T01:07:02.969Z,6.40
2023-05-09T01:12:31.629Z,6.10
2023-05-09T01:17:53.065Z,6.00
2023-05-09T01:23:05.080Z,5.90
2023-05-09T01:28:14.536Z,6.40
2023-05-09T01:33:19.386Z,6.60
2023-05-09T01:38:25.395Z,7.10
2023-05-09T01:43:30.187Z,6.60
2023-05-09T01:48:36.304Z,6.70
2023-05-09T01:53:40.509Z,7.10
2023-05-09T01:58:45.497Z,7.30
2023-05-09T02:03:52.576Z,6.90
2023-05-09T02:08:56.711Z,7.10
2023-05-09T02:13:59.538Z,6.90
2023-05-09T02:19:03.791Z,6.70
2023-05-09T02:24:07.034Z,6.50
2023-05-09T02:29:13.233Z,5.60
2023-05-09T02:34:17.008Z,6.70
2023-05-09T02:39:19.818Z,6.60
2023-05-09T02:44:22.642Z,6.50
2023-05-09T02:49:32.050Z,6.60
2023-05-09T02:54:35.595Z,7.50
2023-05-09T02:59:38.388Z,7.20
2023-05-09T03:04:42.056Z,7.30
2023-05-09T03:09:44.868Z,7.70
2023-05-09T03:14:48.000Z,7.30
2023-05-09T03:19:51.196Z,7.80
2023-05-09T03:24:53.994Z,7.60
2023-05-09T03:29:56.870Z,7.80
2023-05-09T03:35:00.115Z,7.30
2023-05-09T03:40:02.907Z,7.50
2023-05-09T03:45:06.041Z,7.80
2023-05-09T03:50:09.679Z,7.10
2023-05-09T03:55:12.666Z,7.90
2023-05-09T04:00:16.043Z,8.70
2023-05-09T04:05:19.129Z,7.70
2023-05-09T04:10:21.985Z,7.90
2023-05-09T04:15:24.851Z,7.30
2023-05-09T04:20:27.869Z,6.80
2023-05-09T04:25:38.217Z,7.70
2023-05-09T04:30:40.989Z,8.20
2023-05-09T04:35:43.765Z,7.70
2023-05-09T04:40:47.562Z,7.40
2023-05-09T04:45:50.467Z,7.60
2023-05-09T04:50:53.236Z,7.10
2023-05-09T04:55:56.375Z,6.90
2023-05-09T05:00:59.123Z,6.60
2023-05-09T05:06:01.860Z,6.80
2023-05-09T05:11:04.831Z,6.20
2023-05-09T05:16:07.608Z,6.50
2023-05-09T05:21:10.412Z,6.50
2023-05-09T05:26:13.351Z,6.10
2023-05-09T05:31:16.153Z,6.50
2023-05-09T05:36:20.401Z,6.40
2023-05-09T05:41:27.272Z,6.50
2023-05-09T05:46:30.671Z,7.10
2023-05-09T05:51:33.531Z,6.20
2023-05-09T05:56:36.313Z,6.90
2023-05-09T06:01:39.420Z,6.90
2023-05-09T06:06:44.664Z,7.40
2023-05-09T06:11:47.418Z,7.10
2023-05-09T06:16:50.286Z,6.20
2023-05-09T06:21:53.142Z,6.30
2023-05-09T06:26:58.681Z,5.70
2023-05-09T06:32:01.510Z,5.50
2023-05-09T06:37:04.547Z,4.90
2023-05-09T06:42:09.726Z,5.10
2023-05-09T06:47:12.484Z,5.20
2023-05-09T06:52:18.703Z,5.30
2023-05-09T06:57:21.470Z,5.20
2023-05-09T07:02:25.575Z,4.60
2023-05-09T07:07:31.120Z,4.60
2023-05-09T07:12:34.059Z,4.70
2023-05-09T07:22:40.245Z,4.30
2023-05-09T07:32:46.358Z,4.00
2023-05-09T07:37:49.356Z,4.20
2023-05-09T07:42:55.144Z,3.90
2023-05-09T07:47:58.176Z,4.50
2023-05-09T07:53:07.403Z,4.60
2023-05-09T07:58:11.338Z,3.10
2023-05-09T08:03:14.434Z,3.70
2023-05-09T08:13:20.203Z,3.90
2023-05-09T08:18:23.371Z,4.10
2023-05-09T08:23:28.246Z,3.50
2023-05-09T08:28:34.398Z,3.80
2023-05-09T08:33:59.019Z,3.80
2023-05-09T08:39:04.103Z,3.30
2023-05-09T08:44:07.505Z,3.30
2023-05-09T08:49:11.264Z,3.20
2023-05-09T08:54:15.513Z,2.90
2023-05-09T08:59:19.515Z,2.80
2023-05-09T09:04:22.362Z,3.00
2023-05-09T09:09:26.850Z,2.70
2023-05-09T09:14:32.707Z,3.10
2023-05-09T09:19:37.366Z,3.10
2023-05-09T09:24:40.368Z,2.80
2023-05-09T09:29:44.039Z,2.90
2023-05-09T09:34:50.039Z,3.00
2023-05-09T09:39:57.194Z,2.90
2023-05-09T09:45:03.719Z,2.60
2023-05-09T09:50:26.252Z,2.90
2023-05-09T09:55:31.883Z,2.60
2023-05-09T10:00:34.820Z,2.70
2023-05-09T10:05:45.260Z,2.40
2023-05-09T10:10:54.726Z,2.70
2023-05-09T10:15:59.907Z,2.80
2023-05-09T10:21:06.108Z,2.50
2023-05-09T10:26:22.941Z,2.60
2023-05-09T10:31:29.156Z,2.50
2023-05-09T10:36:38.329Z,2.20
2023-05-09T10:41:41.697Z,2.40
2023-05-09T10:46:46.173Z,2.50
2023-05-09T10:51:52.343Z,2.30
2023-05-09T10:56:56.695Z,2.30
2023-05-09T11:02:02.988Z,2.10
2023-05-09T11:07:23.784Z,2.50
2023-05-09T11:12:27.237Z,2.50
2023-05-09T11:17:32.658Z,2.40
2023-05-09T11:22:41.625Z,2.40
2023-05-09T11:27:46.964Z,2.40
2023-05-09T11:32:55.818Z,2.50
2023-05-09T11:38:06.768Z,2.30
2023-05-09T11:43:09.695Z,3.00
2023-05-09T11:48:13.726Z,2.30
2023-05-09T11:53:16.671Z,2.30
2023-05-09T11:58:21.595Z,2.50
2023-05-09T12:03:25.312Z,2.50
2023-05-09T12:08:28.990Z,2.40
2023-05-09T12:13:32.094Z,2.60
2023-05-09T12:18:35.039Z,2.70
2023-05-09T12:23:38.432Z,2.50
2023-05-09T12:28:42.731Z,3.10
2023-05-09T12:33:46.074Z,2.60
2023-05-09T12:38:53.960Z,2.60
2023-05-09T12:43:57.184Z,2.70
2023-05-09T12:49:06.505Z,2.80
2023-05-09T12:54:13.943Z,2.70
2023-05-09T12:59:24.182Z,3.40
2023-05-09T13:04:39.811Z,2.70
2023-05-09T13:09:57.386Z,2.60
2023-05-09T13:15:00.395Z,2.60
2023-05-09T13:20:08.191Z,2.90
2023-05-09T13:25:11.642Z,2.30
2023-05-09T13:30:15.960Z,2.50
2023-05-09T13:35:19.635Z,2.60
2023-05-09T13:40:22.940Z,2.70
2023-05-09T13:45:26.825Z,2.50
2023-05-09T13:50:30.056Z,2.60
2023-05-09T13:55:34.532Z,2.60
2023-05-09T14:00:37.770Z,3.00
2023-05-09T14:05:40.607Z,2.80
2023-05-09T14:10:45.511Z,2.40
2023-05-09T14:15:50.737Z,2.70
2023-05-09T14:20:53.565Z,3.00
2023-05-09T14:25:56.422Z,2.40
2023-05-09T14:30:59.268Z,3.00
2023-05-09T14:36:03.154Z,2.90
2023-05-09T14:41:07.357Z,2.90
2023-05-09T14:46:11.106Z,2.70
2023-05-09T14:51:14.398Z,2.60
2023-05-09T14:56:17.231Z,2.50
2023-05-09T15:01:20.027Z,2.40
2023-05-09T15:06:24.196Z,2.50
2023-05-09T15:11:28.760Z,3.20
2023-05-09T15:21:36.977Z,2.70
2023-05-09T15:26:39.749Z,2.70
2023-05-09T15:31:42.656Z,2.60
2023-05-09T15:36:45.533Z,2.50
2023-05-09T15:41:48.321Z,2.40
2023-05-09T15:46:51.403Z,2.50
2023-05-09T15:51:54.192Z,2.70
2023-05-09T15:56:57.515Z,2.10
2023-05-09T16:02:00.375Z,2.50
2023-05-09T16:07:03.786Z,2.70
2023-05-09T16:12:07.493Z,2.70
2023-05-09T16:17:10.319Z,2.50
2023-05-09T16:22:13.383Z,2.90
2023-05-09T16:27:17.357Z,2.40
2023-05-09T16:32:20.441Z,2.60
2023-05-09T16:37:24.090Z,2.60
2023-05-09T16:42:28.646Z,2.40
2023-05-09T16:47:31.807Z,2.50
2023-05-09T16:52:34.727Z,2.50
2023-05-09T16:57:37.702Z,3.50
2023-05-09T17:02:41.070Z,2.20
2023-05-09T17:07:45.408Z,2.40
2023-05-09T17:12:48.276Z,2.40
2023-05-09T17:17:51.386Z,2.40
2023-05-09T17:22:54.599Z,2.60
2023-05-09T17:27:57.674Z,2.70
2023-05-09T17:33:00.713Z,3.20
2023-05-09T17:38:03.738Z,2.70
2023-05-09T17:43:06.622Z,2.80
2023-05-09T17:48:09.495Z,2.60
2023-05-09T17:53:13.614Z,2.60
2023-05-09T17:58:18.510Z,2.90
2023-05-09T18:03:21.485Z,2.70
2023-05-09T18:08:24.650Z,2.70
2023-05-09T18:13:27.568Z,3.20
2023-05-09T18:18:34.457Z,3.10
2023-05-09T18:23:37.554Z,3.40
2023-05-09T18:28:40.936Z,3.10
2023-05-09T18:33:45.402Z,3.10
2023-05-09T18:38:48.504Z,2.90
2023-05-09T18:43:51.443Z,4.40
2023-05-09T18:48:54.355Z,5.70
2023-05-09T18:53:57.783Z,5.50
2023-05-09T18:59:00.666Z,4.80
2023-05-09T19:04:04.512Z,4.30
2023-05-09T19:09:07.376Z,4.80
2023-05-09T19:14:10.378Z,4.30
2023-05-09T19:19:15.828Z,5.10
2023-05-09T19:24:18.639Z,4.80
2023-05-09T19:29:21.579Z,4.50
2023-05-09T19:34:25.824Z,4.50
2023-05-09T19:39:29.795Z,4.20
2023-05-09T19:44:32.706Z,4.00
2023-05-09T19:49:35.581Z,4.60
2023-05-09T19:54:38.411Z,10.20
2023-05-09T19:59:41.283Z,15.10
2023-05-09T20:04:49.834Z,12.50
2023-05-09T20:09:52.825Z,10.30
2023-05-09T20:14:55.597Z,7.30
2023-05-09T20:19:58.557Z,7.00
2023-05-09T20:25:01.423Z,5.80
2023-05-09T20:30:07.517Z,8.60
2023-05-09T20:35:10.752Z,17.70
2023-05-09T20:40:14.409Z,18.10
2023-05-09T20:45:17.734Z,16.10
2023-05-09T20:50:21.072Z,13.90
2023-05-09T20:55:24.480Z,8.40
2023-05-09T21:00:27.252Z,7.50
2023-05-09T21:05:30.089Z,10.50
2023-05-09T21:10:32.869Z,11.80
2023-05-09T21:15:35.696Z,13.00
2023-05-09T21:20:38.697Z,7.30
2023-05-09T21:25:42.584Z,7.30
2023-05-09T21:30:51.199Z,10.10
2023-05-09T21:35:54.064Z,8.00
2023-05-09T21:40:58.292Z,5.50
2023-05-09T21:46:01.231Z,6.70
2023-05-09T21:51:04.979Z,10.10
2023-05-09T21:56:08.365Z,10.70
2023-05-09T22:01:11.117Z,6.60
2023-05-09T22:06:13.864Z,5.40
2023-05-09T22:11:18.048Z,4.70
2023-05-09T22:16:22.541Z,5.00
2023-05-09T22:21:25.545Z,5.20
2023-05-09T22:26:28.333Z,5.20
2023-05-09T22:31:31.182Z,4.80
2023-05-09T22:36:33.977Z,5.70
2023-05-09T22:41:36.769Z,5.60
2023-05-09T22:46:39.974Z,5.00
2023-05-09T22:51:42.767Z,5.40
2023-05-09T22:56:45.984Z,6.50
2023-05-09T23:01:48.815Z,5.40
2023-05-09T23:06:51.644Z,4.70
2023-05-09T23:11:55.147Z,5.10
2023-05-09T23:16:58.027Z,7.40
2023-05-09T23:22:00.783Z,8.90
2023-05-09T23:27:03.739Z,5.20
2023-05-09T23:32:06.495Z,5.00
2023-05-09T23:37:09.330Z,5.10
2023-05-09T23:42:12.509Z,7.10
2023-05-09T23:47:15.700Z,4.60
2023-05-09T23:52:18.471Z,4.20
2023-05-09T23:57:21.278Z,4.40
